Meteo Giornale » Osservazioni meteo Stati Uniti (USA) » Walnut Ridge
ore: 12:56 - Osservazioni Meteo Walnut Ridge
Lat. 36° 8' N Lon. 90° 55' W Alt. 83 metri s.l.m.
34 °C
Sereno
Temp. 24 Ore
21 °C
34 °C
Sud/Sud-Ovest
18.5 Km/h
Dew point 21 °C
Umidità 46 %
Visibilità 10 Km
Il sole sorge alle ore 06:34
Il sole tramonta alle ore 19:33
| Data e Ora | Cielo e Fenomeni | T °C | DP °C | Um. % | Pres. hPa | Vis. km | Vento km/h | |
|---|---|---|---|---|---|---|---|---|
| Oggi h: 12:56 | Sereno | 34 | 21 | 46 | 1018 | 10 | S/SO 18.5 | |
| Oggi h: 11:56 | Sereno | 34 | 23 | 52 | 1018 | 10 | S 11.1 | |
| Oggi h: 10:56 | Sereno | 32 | 23 | 59 | 1019 | 10 | N 9.3 | |
| Oggi h: 09:56 | Sereno | 30 | 22 | 62 | 1019 | 10 | SO 16.7 | |
| Oggi h: 08:56 | Sereno | 27 | 22 | 74 | 1019 | 10 | S 14.8 | |
| Oggi h: 07:56 | Sereno | 24 | 23 | 94 | 1018 | 10 | N 5.5 | |
| Oggi h: 06:56 | Sereno | 21 | 21 | 100 | 1018 | 10 | N 5.5 | |
| Oggi h: 05:56 | Sereno | 22 | 21 | 94 | 1017 | 10 | N 0 | |
| Oggi h: 04:56 | Sereno | 23 | 19 | 78 | 1017 | 10 | N 0 | |
| Oggi h: 03:56 | Sereno | 23 | 19 | 78 | 1016 | 10 | N 5.5 | |
| Oggi h: 02:56 | Sereno | 23 | 19 | 78 | 1016 | 10 | N 5.5 | |
| Oggi h: 01:56 | Sereno | 23 | 19 | 78 | 1016 | 10 | S/SE 7.4 | |
| Oggi h: 00:56 | Sereno | 24 | 19 | 73 | 1017 | 10 | N 5.5 | |
| Ieri h: 23:56 | Sereno | 24 | 19 | 73 | 1016 | 10 | S 9.3 | |
| Ieri h: 22:56 | Sereno | 26 | 19 | 65 | 1016 | 10 | N 0 | |
| Ieri h: 21:56 | Sereno | 26 | 19 | 65 | 1016 | 10 | N 5.5 | |
| Ieri h: 20:56 | Sereno | 26 | 20 | 69 | 1016 | 10 | S/SE 11.1 | |
| Ieri h: 19:56 | Sereno | 29 | 19 | 54 | 1015 | 10 | S 7.4 | |
| Ieri h: 18:56 | Sereno | 31 | 19 | 48 | 1015 | 10 | S 7.4 | |
| Ieri h: 17:56 | Sereno | 33 | 17 | 38 | 1016 | 10 | S/SO 18.5 | |
| Ieri h: 16:56 | Sereno | 34 | 18 | 38 | 1016 | 10 | S 14.8 | |
| Ieri h: 15:56 | Sereno | 34 | 17 | 36 | 1016 | 10 | S 18.5 | |
| Ieri h: 14:56 | Sereno | 34 | 16 | 34 | 1016 | 10 | S 24 | |
| Ieri h: 13:56 | Sereno | 34 | 16 | 34 | 1017 | 10 | S/SO 16.7 | |



